sensor_id;sensor_type;location;lat;lon;timestamp;pressure;altitude;pressure_sealevel;temperature;humidity
77062;BME280;65989;51.686;5.138;2024-02-21T00:00:37;102297.59;;;9.33;100.00
77062;BME280;65989;51.686;5.138;2024-02-21T00:03:04;102309.00;;;9.34;100.00
77062;BME280;65989;51.686;5.138;2024-02-21T00:05:30;102303.91;;;9.32;100.00
77062;BME280;65989;51.686;5.138;2024-02-21T00:07:56;102302.88;;;9.33;100.00
77062;BME280;65989;51.686;5.138;2024-02-21T00:10:21;102306.13;;;9.35;100.00
77062;BME280;65989;51.686;5.138;2024-02-21T00:12:46;102295.53;;;9.35;100.00
77062;BME280;65989;51.686;5.138;2024-02-21T00:15:12;102299.63;;;9.38;100.00
77062;BME280;65989;51.686;5.138;2024-02-21T00:17:37;102287.00;;;9.40;99.90
77062;BME280;65989;51.686;5.138;2024-02-21T00:20:03;102286.59;;;9.36;99.83
77062;BME280;65989;51.686;5.138;2024-02-21T00:22:28;102282.72;;;9.32;99.68
77062;BME280;65989;51.686;5.138;2024-02-21T00:24:56;102269.13;;;9.29;99.56
77062;BME280;65989;51.686;5.138;2024-02-21T00:27:23;102269.75;;;9.24;99.42
77062;BME280;65989;51.686;5.138;2024-02-21T00:29:48;102253.28;;;9.22;99.39
77062;BME280;65989;51.686;5.138;2024-02-21T00:32:14;102252.06;;;9.18;99.57
77062;BME280;65989;51.686;5.138;2024-02-21T00:34:39;102244.16;;;9.11;99.58
77062;BME280;65989;51.686;5.138;2024-02-21T00:37:05;102238.69;;;9.06;99.95
77062;BME280;65989;51.686;5.138;2024-02-21T00:39:31;102234.63;;;9.03;99.97
77062;BME280;65989;51.686;5.138;2024-02-21T00:41:56;102244.59;;;9.01;100.00
77062;BME280;65989;51.686;5.138;2024-02-21T00:44:21;102230.16;;;8.97;99.97
77062;BME280;65989;51.686;5.138;2024-02-21T00:46:47;102234.25;;;8.93;100.00
77062;BME280;65989;51.686;5.138;2024-02-21T00:49:12;102232.63;;;8.92;100.00
77062;BME280;65989;51.686;5.138;2024-02-21T00:51:38;102232.63;;;8.92;100.00
77062;BME280;65989;51.686;5.138;2024-02-21T00:54:03;102226.09;;;8.94;100.00
77062;BME280;65989;51.686;5.138;2024-02-21T00:56:28;102233.00;;;8.95;100.00
77062;BME280;65989;51.686;5.138;2024-02-21T00:58:55;102217.56;;;8.92;100.00
77062;BME280;65989;51.686;5.138;2024-02-21T01:01:24;102225.72;;;8.91;100.00
77062;BME280;65989;51.686;5.138;2024-02-21T01:03:50;102223.47;;;8.88;100.00
77062;BME280;65989;51.686;5.138;2024-02-21T01:06:16;102217.59;;;8.86;100.00
77062;BME280;65989;51.686;5.138;2024-02-21T01:08:41;102226.31;;;8.86;100.00
77062;BME280;65989;51.686;5.138;2024-02-21T01:11:07;102226.53;;;8.85;100.00
77062;BME280;65989;51.686;5.138;2024-02-21T01:13:32;102234.47;;;8.85;100.00
77062;BME280;65989;51.686;5.138;2024-02-21T01:15:58;102223.69;;;8.86;100.00
77062;BME280;65989;51.686;5.138;2024-02-21T01:18:23;102217.78;;;8.84;100.00
77062;BME280;65989;51.686;5.138;2024-02-21T01:20:48;102217.78;;;8.84;100.00
77062;BME280;65989;51.686;5.138;2024-02-21T01:23:14;102214.34;;;8.84;100.00
77062;BME280;65989;51.686;5.138;2024-02-21T01:25:39;102204.78;;;8.82;100.00
77062;BME280;65989;51.686;5.138;2024-02-21T01:28:05;102209.47;;;8.80;100.00
77062;BME280;65989;51.686;5.138;2024-02-21T01:30:30;102202.16;;;8.82;100.00
77062;BME280;65989;51.686;5.138;2024-02-21T01:32:55;102202.34;;;8.81;100.00
77062;BME280;65989;51.686;5.138;2024-02-21T01:35:21;102197.88;;;8.81;100.00
77062;BME280;65989;51.686;5.138;2024-02-21T01:37:46;102194.41;;;8.81;100.00
77062;BME280;65989;51.686;5.138;2024-02-21T01:40:12;102192.41;;;8.76;100.00
77062;BME280;65989;51.686;5.138;2024-02-21T01:42:40;102192.81;;;8.73;100.00
77062;BME280;65989;51.686;5.138;2024-02-21T01:45:06;102204.63;;;8.71;100.00
77062;BME280;65989;51.686;5.138;2024-02-21T01:47:31;102198.50;;;8.70;100.00
77062;BME280;65989;51.686;5.138;2024-02-21T01:49:57;102196.69;;;8.71;100.00
77062;BME280;65989;51.686;5.138;2024-02-21T01:52:22;102196.88;;;8.69;100.00
77062;BME280;65989;51.686;5.138;2024-02-21T01:54:48;102191.19;;;8.72;100.00
77062;BME280;65989;51.686;5.138;2024-02-21T01:57:14;102201.56;;;8.74;100.00
77062;BME280;65989;51.686;5.138;2024-02-21T01:59:40;102193.22;;;8.77;100.00
77062;BME280;65989;51.686;5.138;2024-02-21T02:02:06;102195.25;;;8.75;100.00
77062;BME280;65989;51.686;5.138;2024-02-21T02:04:31;102187.09;;;8.76;100.00
77062;BME280;65989;51.686;5.138;2024-02-21T02:06:59;102183.66;;;8.76;100.00
77062;BME280;65989;51.686;5.138;2024-02-21T02:09:27;102167.81;;;8.76;100.00
77062;BME280;65989;51.686;5.138;2024-02-21T02:11:53;102163.31;;;8.76;100.00
77062;BME280;65989;51.686;5.138;2024-02-21T02:14:18;102169.66;;;8.69;100.00
77062;BME280;65989;51.686;5.138;2024-02-21T02:16:46;102165.97;;;8.76;100.00
77062;BME280;65989;51.686;5.138;2024-02-21T02:19:12;102165.94;;;8.83;100.00
77062;BME280;65989;51.686;5.138;2024-02-21T02:21:39;102168.38;;;8.85;100.00
77062;BME280;65989;51.686;5.138;2024-02-21T02:24:07;102164.31;;;8.82;100.00
77062;BME280;65989;51.686;5.138;2024-02-21T02:26:33;102155.16;;;8.85;100.00
77062;BME280;65989;51.686;5.138;2024-02-21T02:28:58;102150.91;;;8.84;100.00
77062;BME280;65989;51.686;5.138;2024-02-21T02:31:26;102159.63;;;8.84;100.00
77062;BME280;65989;51.686;5.138;2024-02-21T02:33:51;102158.41;;;8.87;100.00
77062;BME280;65989;51.686;5.138;2024-02-21T02:36:16;102149.06;;;8.84;100.00
77062;BME280;65989;51.686;5.138;2024-02-21T02:38:42;102147.44;;;8.83;100.00
77062;BME280;65989;51.686;5.138;2024-02-21T02:41:08;102142.78;;;8.78;100.00
77062;BME280;65989;51.686;5.138;2024-02-21T02:43:33;102137.50;;;8.78;100.00
77062;BME280;65989;51.686;5.138;2024-02-21T02:45:59;102140.38;;;8.70;100.00
77062;BME280;65989;51.686;5.138;2024-02-21T02:48:24;102141.56;;;8.74;100.00
77062;BME280;65989;51.686;5.138;2024-02-21T02:50:49;102129.97;;;8.75;100.00
77062;BME280;65989;51.686;5.138;2024-02-21T02:53:15;102140.16;;;8.78;100.00
77062;BME280;65989;51.686;5.138;2024-02-21T02:55:40;102135.66;;;8.79;100.00
77062;BME280;65989;51.686;5.138;2024-02-21T02:58:06;102125.91;;;8.79;100.00
77062;BME280;65989;51.686;5.138;2024-02-21T03:00:31;102126.72;;;8.80;100.00
77062;BME280;65989;51.686;5.138;2024-02-21T03:03:01;102126.50;;;8.81;100.00
77062;BME280;65989;51.686;5.138;2024-02-21T03:05:27;102124.88;;;8.80;100.00
77062;BME280;65989;51.686;5.138;2024-02-21T03:07:53;102130.16;;;8.80;100.00
77062;BME280;65989;51.686;5.138;2024-02-21T03:10:18;102122.25;;;8.80;100.00
77062;BME280;65989;51.686;5.138;2024-02-21T03:12:44;102113.50;;;8.80;100.00
77062;BME280;65989;51.686;5.138;2024-02-21T03:15:09;102113.50;;;8.80;100.00
77062;BME280;65989;51.686;5.138;2024-02-21T03:17:35;102108.44;;;8.78;100.00
77062;BME280;65989;51.686;5.138;2024-02-21T03:20:01;102110.06;;;8.79;100.00
77062;BME280;65989;51.686;5.138;2024-02-21T03:22:30;102095.81;;;8.80;100.00
77062;BME280;65989;51.686;5.138;2024-02-21T03:24:55;102090.53;;;8.80;100.00
77062;BME280;65989;51.686;5.138;2024-02-21T03:27:20;102086.25;;;8.79;100.00
77062;BME280;65989;51.686;5.138;2024-02-21T03:29:46;102085.44;;;8.79;100.00
77062;BME280;65989;51.686;5.138;2024-02-21T03:32:11;102079.34;;;8.78;100.00
77062;BME280;65989;51.686;5.138;2024-02-21T03:34:36;102074.06;;;8.78;100.00
77062;BME280;65989;51.686;5.138;2024-02-21T03:37:02;102076.72;;;8.78;100.00
77062;BME280;65989;51.686;5.138;2024-02-21T03:39:31;102070.81;;;8.76;100.00
77062;BME280;65989;51.686;5.138;2024-02-21T03:41:56;102066.38;;;8.77;100.00
77062;BME280;65989;51.686;5.138;2024-02-21T03:44:23;102072.22;;;8.79;100.00
77062;BME280;65989;51.686;5.138;2024-02-21T03:46:48;102067.97;;;8.78;100.00
77062;BME280;65989;51.686;5.138;2024-02-21T03:49:13;102065.91;;;8.80;100.00
77062;BME280;65989;51.686;5.138;2024-02-21T03:51:39;102067.75;;;8.79;100.00
77062;BME280;65989;51.686;5.138;2024-02-21T03:54:04;102054.53;;;8.79;100.00
77062;BME280;65989;51.686;5.138;2024-02-21T03:56:29;102061.47;;;8.80;100.00
77062;BME280;65989;51.686;5.138;2024-02-21T03:58:55;102054.53;;;8.79;100.00
77062;BME280;65989;51.686;5.138;2024-02-21T04:01:20;102060.84;;;8.78;100.00
77062;BME280;65989;51.686;5.138;2024-02-21T04:03:46;102056.59;;;8.77;100.00
77062;BME280;65989;51.686;5.138;2024-02-21T04:06:11;102069.19;;;8.75;100.00
77062;BME280;65989;51.686;5.138;2024-02-21T04:08:37;102064.94;;;8.74;100.00
77062;BME280;65989;51.686;5.138;2024-02-21T04:11:02;102074.50;;;8.75;100.00
77062;BME280;65989;51.686;5.138;2024-02-21T04:13:28;102065.97;;;8.73;100.00
77062;BME280;65989;51.686;5.138;2024-02-21T04:15:53;102064.13;;;8.74;100.00
77062;BME280;65989;51.686;5.138;2024-02-21T04:18:19;102057.44;;;8.71;100.00
77062;BME280;65989;51.686;5.138;2024-02-21T04:20:45;102056.22;;;8.74;100.00
77062;BME280;65989;51.686;5.138;2024-02-21T04:23:10;102055.19;;;8.75;100.00
77062;BME280;65989;51.686;5.138;2024-02-21T04:25:36;102044.63;;;8.75;100.00
77062;BME280;65989;51.686;5.138;2024-02-21T04:28:01;102052.75;;;8.73;100.00
77062;BME280;65989;51.686;5.138;2024-02-21T04:30:26;102055.38;;;8.73;100.00
77062;BME280;65989;51.686;5.138;2024-02-21T04:32:52;102055.59;;;8.72;100.00
77062;BME280;65989;51.686;5.138;2024-02-21T04:35:17;102051.53;;;8.69;100.00
77062;BME280;65989;51.686;5.138;2024-02-21T04:37:43;102048.91;;;8.69;100.00
77062;BME280;65989;51.686;5.138;2024-02-21T04:40:08;102047.69;;;8.65;100.00
77062;BME280;65989;51.686;5.138;2024-02-21T04:42:34;102054.00;;;8.64;100.00
77062;BME280;65989;51.686;5.138;2024-02-21T04:45:00;102046.66;;;8.66;100.00
77062;BME280;65989;51.686;5.138;2024-02-21T04:47:25;102045.03;;;8.65;100.00
77062;BME280;65989;51.686;5.138;2024-02-21T04:49:50;102037.53;;;8.62;100.00
77062;BME280;65989;51.686;5.138;2024-02-21T04:52:16;102037.97;;;8.59;100.00
77062;BME280;65989;51.686;5.138;2024-02-21T04:54:41;102029.66;;;8.55;100.00
77062;BME280;65989;51.686;5.138;2024-02-21T04:57:06;102014.81;;;8.54;100.00
77062;BME280;65989;51.686;5.138;2024-02-21T04:59:32;102013.41;;;8.51;100.00
77062;BME280;65989;51.686;5.138;2024-02-21T05:01:57;102006.06;;;8.47;100.00
77062;BME280;65989;51.686;5.138;2024-02-21T05:04:24;102004.25;;;8.47;100.00
77062;BME280;65989;51.686;5.138;2024-02-21T05:06:49;102013.41;;;8.45;100.00
77062;BME280;65989;51.686;5.138;2024-02-21T05:09:14;102009.97;;;8.44;100.00
77062;BME280;65989;51.686;5.138;2024-02-21T05:11:40;102002.03;;;8.44;100.00
77062;BME280;65989;51.686;5.138;2024-02-21T05:14:05;101999.38;;;8.44;100.00
77062;BME280;65989;51.686;5.138;2024-02-21T05:16:31;101996.97;;;8.43;100.00
77062;BME280;65989;51.686;5.138;2024-02-21T05:18:56;101988.44;;;8.41;100.00
77062;BME280;65989;51.686;5.138;2024-02-21T05:21:23;101981.13;;;8.36;100.00
77062;BME280;65989;51.686;5.138;2024-02-21T05:23:53;101976.06;;;8.34;100.00
77062;BME280;65989;51.686;5.138;2024-02-21T05:26:22;101982.56;;;8.32;100.00
77062;BME280;65989;51.686;5.138;2024-02-21T05:28:48;101980.78;;;8.26;100.00
77062;BME280;65989;51.686;5.138;2024-02-21T05:31:13;101974.91;;;8.17;100.00
77062;BME280;65989;51.686;5.138;2024-02-21T05:33:39;101964.34;;;8.17;100.00
77062;BME280;65989;51.686;5.138;2024-02-21T05:36:05;101962.31;;;8.19;100.00
77062;BME280;65989;51.686;5.138;2024-02-21T05:38:30;101957.25;;;8.17;100.00
77062;BME280;65989;51.686;5.138;2024-02-21T05:40:56;101955.03;;;8.14;100.00
77062;BME280;65989;51.686;5.138;2024-02-21T05:43:22;101949.94;;;8.13;100.00
77062;BME280;65989;51.686;5.138;2024-02-21T05:45:47;101950.38;;;8.10;100.00
77062;BME280;65989;51.686;5.138;2024-02-21T05:48:13;101948.75;;;8.09;100.00
77062;BME280;65989;51.686;5.138;2024-02-21T05:50:39;101940.00;;;8.08;100.00
77062;BME280;65989;51.686;5.138;2024-02-21T05:53:04;101948.53;;;8.10;100.00
77062;BME280;65989;51.686;5.138;2024-02-21T05:55:30;101941.22;;;8.12;100.00
77062;BME280;65989;51.686;5.138;2024-02-21T05:57:55;101940.19;;;8.13;100.00
77062;BME280;65989;51.686;5.138;2024-02-21T06:00:21;101932.28;;;8.13;100.00
77062;BME280;65989;51.686;5.138;2024-02-21T06:02:46;101936.53;;;8.14;100.00
77062;BME280;65989;51.686;5.138;2024-02-21T06:05:12;101936.31;;;8.16;100.00
77062;BME280;65989;51.686;5.138;2024-02-21T06:07:38;101917.47;;;8.12;100.00
77062;BME280;65989;51.686;5.138;2024-02-21T06:10:04;101919.28;;;8.12;100.00
77062;BME280;65989;51.686;5.138;2024-02-21T06:12:30;101909.53;;;8.12;100.00
77062;BME280;65989;51.686;5.138;2024-02-21T06:14:55;101916.06;;;8.10;100.00
77062;BME280;65989;51.686;5.138;2024-02-21T06:17:20;101904.28;;;8.05;100.00
77062;BME280;65989;51.686;5.138;2024-02-21T06:19:46;101913.22;;;8.04;100.00
77062;BME280;65989;51.686;5.138;2024-02-21T06:22:11;101910.19;;;8.01;100.00
77062;BME280;65989;51.686;5.138;2024-02-21T06:24:38;101912.22;;;7.99;100.00
77062;BME280;65989;51.686;5.138;2024-02-21T06:27:04;101906.75;;;8.00;100.00
77062;BME280;65989;51.686;5.138;2024-02-21T06:29:31;101922.38;;;8.02;100.00
77062;BME280;65989;51.686;5.138;2024-02-21T06:31:57;101917.91;;;8.02;100.00
77062;BME280;65989;51.686;5.138;2024-02-21T06:34:22;101920.34;;;8.04;100.00
77062;BME280;65989;51.686;5.138;2024-02-21T06:36:49;101919.13;;;8.06;100.00
77062;BME280;65989;51.686;5.138;2024-02-21T06:39:14;101920.75;;;8.07;100.00
77062;BME280;65989;51.686;5.138;2024-02-21T06:41:40;101921.34;;;8.10;100.00
77062;BME280;65989;51.686;5.138;2024-02-21T06:44:05;101916.63;;;8.12;100.00
77062;BME280;65989;51.686;5.138;2024-02-21T06:46:31;101923.78;;;8.04;100.00
77062;BME280;65989;51.686;5.138;2024-02-21T06:49:00;101930.47;;;8.07;100.00
77062;BME280;65989;51.686;5.138;2024-02-21T06:51:27;101926.38;;;8.18;100.00
77062;BME280;65989;51.686;5.138;2024-02-21T06:53:53;101924.75;;;8.17;100.00
77062;BME280;65989;51.686;5.138;2024-02-21T06:56:19;101917.59;;;8.24;100.00
77062;BME280;65989;51.686;5.138;2024-02-21T06:58:44;101917.59;;;8.24;100.00
77062;BME280;65989;51.686;5.138;2024-02-21T07:01:10;101918.00;;;8.28;100.00
77062;BME280;65989;51.686;5.138;2024-02-21T07:03:36;101908.03;;;8.30;100.00
77062;BME280;65989;51.686;5.138;2024-02-21T07:06:01;101903.94;;;8.34;100.00
77062;BME280;65989;51.686;5.138;2024-02-21T07:08:27;101901.09;;;8.35;100.00
77062;BME280;65989;51.686;5.138;2024-02-21T07:10:52;101895.00;;;8.35;100.00
77062;BME280;65989;51.686;5.138;2024-02-21T07:13:17;101902.91;;;8.35;100.00
77062;BME280;65989;51.686;5.138;2024-02-21T07:15:43;101900.09;;;8.36;100.00
77062;BME280;65989;51.686;5.138;2024-02-21T07:18:08;101899.06;;;8.37;100.00
77062;BME280;65989;51.686;5.138;2024-02-21T07:20:34;101897.44;;;8.36;100.00
77062;BME280;65989;51.686;5.138;2024-02-21T07:23:02;101892.75;;;8.39;100.00
77062;BME280;65989;51.686;5.138;2024-02-21T07:25:27;101888.28;;;8.39;100.00
77062;BME280;65989;51.686;5.138;2024-02-21T07:27:52;101885.59;;;8.46;100.00
77062;BME280;65989;51.686;5.138;2024-02-21T07:30:18;101870.75;;;8.45;100.00
77062;BME280;65989;51.686;5.138;2024-02-21T07:32:43;101874.22;;;8.45;100.00
77062;BME280;65989;51.686;5.138;2024-02-21T07:35:09;101875.81;;;8.53;100.00
77062;BME280;65989;51.686;5.138;2024-02-21T07:37:37;101873.19;;;8.46;100.00
77062;BME280;65989;51.686;5.138;2024-02-21T07:40:06;101859.19;;;8.52;100.00
77062;BME280;65989;51.686;5.138;2024-02-21T07:42:32;101859.53;;;8.56;100.00
77062;BME280;65989;51.686;5.138;2024-02-21T07:44:57;101843.94;;;8.55;100.00
77062;BME280;65989;51.686;5.138;2024-02-21T07:47:23;101840.47;;;8.54;100.00
77062;BME280;65989;51.686;5.138;2024-02-21T07:49:48;101835.56;;;8.58;100.00
77062;BME280;65989;51.686;5.138;2024-02-21T07:52:14;101836.16;;;8.60;100.00
77062;BME280;65989;51.686;5.138;2024-02-21T07:54:40;101825.38;;;8.61;100.00
77062;BME280;65989;51.686;5.138;2024-02-21T07:57:07;101830.44;;;8.63;100.00
77062;BME280;65989;51.686;5.138;2024-02-21T07:59:33;101837.72;;;8.68;100.00
77062;BME280;65989;51.686;5.138;2024-02-21T08:01:58;101833.63;;;8.72;100.00
77062;BME280;65989;51.686;5.138;2024-02-21T08:04:24;101829.75;;;8.74;100.00
77062;BME280;65989;51.686;5.138;2024-02-21T08:06:53;101826.00;;;8.82;100.00
77062;BME280;65989;51.686;5.138;2024-02-21T08:09:19;101821.88;;;8.93;100.00
77062;BME280;65989;51.686;5.138;2024-02-21T08:11:44;101818.75;;;8.96;100.00
77062;BME280;65989;51.686;5.138;2024-02-21T08:14:10;101814.03;;;9.05;99.95
77062;BME280;65989;51.686;5.138;2024-02-21T08:16:35;101797.50;;;9.09;99.82
77062;BME280;65989;51.686;5.138;2024-02-21T08:19:00;101803.59;;;9.10;99.28
77062;BME280;65989;51.686;5.138;2024-02-21T08:21:28;101798.09;;;9.11;98.77
77062;BME280;65989;51.686;5.138;2024-02-21T08:23:53;101794.19;;;9.14;98.57
77062;BME280;65989;51.686;5.138;2024-02-21T08:26:19;101782.22;;;9.11;98.40
77062;BME280;65989;51.686;5.138;2024-02-21T08:28:45;101784.19;;;9.16;98.40
77062;BME280;65989;51.686;5.138;2024-02-21T08:31:10;101787.81;;;9.22;98.22
77062;BME280;65989;51.686;5.138;2024-02-21T08:33:35;101773.13;;;9.26;97.73
77062;BME280;65989;51.686;5.138;2024-02-21T08:36:01;101776.13;;;9.30;97.41
77062;BME280;65989;51.686;5.138;2024-02-21T08:38:26;101764.00;;;9.40;96.97
77062;BME280;65989;51.686;5.138;2024-02-21T08:40:52;101761.69;;;9.44;96.18
77062;BME280;65989;51.686;5.138;2024-02-21T08:43:17;101763.78;;;9.42;95.47
77062;BME280;65989;51.686;5.138;2024-02-21T08:45:42;101750.91;;;9.46;95.91
77062;BME280;65989;51.686;5.138;2024-02-21T08:48:08;101747.16;;;9.53;95.82
77062;BME280;65989;51.686;5.138;2024-02-21T08:50:33;101746.69;;;9.56;95.03
77062;BME280;65989;51.686;5.138;2024-02-21T08:52:59;101745.47;;;9.59;94.93
77062;BME280;65989;51.686;5.138;2024-02-21T08:55:24;101741.56;;;9.62;94.71
77062;BME280;65989;51.686;5.138;2024-02-21T08:57:49;101744.88;;;9.57;94.87
77062;BME280;65989;51.686;5.138;2024-02-21T09:00:16;101738.09;;;9.61;95.43
77062;BME280;65989;51.686;5.138;2024-02-21T09:02:41;101732.34;;;9.64;95.15
77062;BME280;65989;51.686;5.138;2024-02-21T09:05:13;101725.00;;;9.66;94.87
77062;BME280;65989;51.686;5.138;2024-02-21T09:07:39;101727.78;;;9.71;94.18
77062;BME280;65989;51.686;5.138;2024-02-21T09:10:05;101728.00;;;9.70;93.86
77062;BME280;65989;51.686;5.138;2024-02-21T09:12:30;101728.00;;;9.70;93.59
77062;BME280;65989;51.686;5.138;2024-02-21T09:14:56;101719.38;;;9.75;94.56
77062;BME280;65989;51.686;5.138;2024-02-21T09:17:21;101712.81;;;9.77;93.43
77062;BME280;65989;51.686;5.138;2024-02-21T09:19:47;101712.63;;;9.79;93.09
77062;BME280;65989;51.686;5.138;2024-02-21T09:22:13;101711.72;;;9.85;93.29
77062;BME280;65989;51.686;5.138;2024-02-21T09:24:38;101698.38;;;9.92;93.04
77062;BME280;65989;51.686;5.138;2024-02-21T09:27:04;101705.41;;;9.98;92.71
77062;BME280;65989;51.686;5.138;2024-02-21T09:29:31;101694.13;;;10.02;92.55
77062;BME280;65989;51.686;5.138;2024-02-21T09:31:58;101685.38;;;10.02;91.82
77062;BME280;65989;51.686;5.138;2024-02-21T09:34:24;101688.25;;;10.00;92.00
77062;BME280;65989;51.686;5.138;2024-02-21T09:36:49;101675.25;;;9.99;92.49
77062;BME280;65989;51.686;5.138;2024-02-21T09:39:14;101669.59;;;9.95;92.65
77062;BME280;65989;51.686;5.138;2024-02-21T09:41:45;101668.22;;;9.93;93.16
77062;BME280;65989;51.686;5.138;2024-02-21T09:44:13;101663.38;;;9.90;93.36
77062;BME280;65989;51.686;5.138;2024-02-21T09:51:49;101641.47;;;9.70;94.57
77062;BME280;65989;51.686;5.138;2024-02-21T09:54:16;101636.41;;;9.69;95.04
77062;BME280;65989;51.686;5.138;2024-02-21T09:56:47;101624.78;;;9.70;95.91
77062;BME280;65989;51.686;5.138;2024-02-21T09:59:15;101612.25;;;9.77;96.21
77062;BME280;65989;51.686;5.138;2024-02-21T10:01:42;101598.91;;;9.84;96.10
77062;BME280;65989;51.686;5.138;2024-02-21T10:04:08;101607.19;;;9.99;96.37
77062;BME280;65989;51.686;5.138;2024-02-21T10:06:34;101601.81;;;10.06;95.85
77062;BME280;65989;51.686;5.138;2024-02-21T10:09:02;101583.59;;;10.10;95.51
77062;BME280;65989;51.686;5.138;2024-02-21T10:11:28;101573.00;;;10.10;95.54
77062;BME280;65989;51.686;5.138;2024-02-21T10:14:03;101587.88;;;10.11;95.58
77062;BME280;65989;51.686;5.138;2024-02-21T10:16:30;101587.75;;;10.06;95.26
77062;BME280;65989;51.686;5.138;2024-02-21T10:18:55;101572.44;;;10.08;95.67
77062;BME280;65989;51.686;5.138;2024-02-21T10:21:21;101568.28;;;10.12;95.81
77062;BME280;65989;51.686;5.138;2024-02-21T10:23:48;101553.69;;;10.09;95.07
77062;BME280;65989;51.686;5.138;2024-02-21T10:26:15;101550.78;;;10.11;94.76
77062;BME280;65989;51.686;5.138;2024-02-21T10:28:41;101527.66;;;10.06;94.48
77062;BME280;65989;51.686;5.138;2024-02-21T10:31:08;101525.09;;;10.11;94.73
77062;BME280;65989;51.686;5.138;2024-02-21T10:33:34;101503.69;;;10.13;94.34
77062;BME280;65989;51.686;5.138;2024-02-21T10:36:10;101481.94;;;10.11;94.09
77062;BME280;65989;51.686;5.138;2024-02-21T10:38:36;101472.13;;;10.23;93.85
77062;BME280;65989;51.686;5.138;2024-02-21T10:41:04;101444.94;;;10.28;93.19
77062;BME280;65989;51.686;5.138;2024-02-21T10:43:37;101428.09;;;10.34;92.39
77062;BME280;65989;51.686;5.138;2024-02-21T10:46:06;101454.47;;;10.41;92.04
77062;BME280;65989;51.686;5.138;2024-02-21T10:48:41;101473.88;;;10.58;92.18
77062;BME280;65989;51.686;5.138;2024-02-21T10:51:18;101482.88;;;10.57;91.39
77062;BME280;65989;51.686;5.138;2024-02-21T10:53:45;101492.09;;;10.55;90.55
77062;BME280;65989;51.686;5.138;2024-02-21T10:58:49;101513.91;;;10.45;90.56
77062;BME280;65989;51.686;5.138;2024-02-21T11:01:14;101514.00;;;10.38;90.80
77062;BME280;65989;51.686;5.138;2024-02-21T11:03:44;101509.88;;;10.30;90.71
77062;BME280;65989;51.686;5.138;2024-02-21T11:06:11;101505.28;;;10.26;90.27
77062;BME280;65989;51.686;5.138;2024-02-21T11:08:37;101483.84;;;10.27;91.12
77062;BME280;65989;51.686;5.138;2024-02-21T11:11:05;101482.34;;;10.31;90.94
77062;BME280;65989;51.686;5.138;2024-02-21T11:13:40;101470.69;;;10.44;91.04
77062;BME280;65989;51.686;5.138;2024-02-21T11:16:12;101471.72;;;10.55;90.94
77062;BME280;65989;51.686;5.138;2024-02-21T11:18:38;101466.97;;;10.57;89.56
77062;BME280;65989;51.686;5.138;2024-02-21T11:21:03;101462.78;;;10.61;88.81
77062;BME280;65989;51.686;5.138;2024-02-21T11:23:32;101458.25;;;10.74;88.70
77062;BME280;65989;51.686;5.138;2024-02-21T11:26:10;101470.06;;;10.83;88.23
77062;BME280;65989;51.686;5.138;2024-02-21T11:28:36;101463.06;;;10.77;87.13
77062;BME280;65989;51.686;5.138;2024-02-21T11:31:12;101459.47;;;10.83;88.42
77062;BME280;65989;51.686;5.138;2024-02-21T11:33:41;101447.25;;;10.82;87.47
77062;BME280;65989;51.686;5.138;2024-02-21T11:36:10;101428.91;;;10.81;87.08
77062;BME280;65989;51.686;5.138;2024-02-21T11:38:36;101427.56;;;10.95;86.68
77062;BME280;65989;51.686;5.138;2024-02-21T11:41:02;101398.31;;;11.07;86.55
77062;BME280;65989;51.686;5.138;2024-02-21T11:43:28;101384.00;;;11.25;85.77
77062;BME280;65989;51.686;5.138;2024-02-21T11:46:00;101364.81;;;11.40;85.39
77062;BME280;65989;51.686;5.138;2024-02-21T11:48:26;101370.38;;;11.61;84.40
77062;BME280;65989;51.686;5.138;2024-02-21T11:50:53;101347.16;;;11.73;83.42
77062;BME280;65989;51.686;5.138;2024-02-21T11:53:20;101346.25;;;11.85;82.92
77062;BME280;65989;51.686;5.138;2024-02-21T11:55:46;101328.28;;;11.92;82.02
77062;BME280;65989;51.686;5.138;2024-02-21T11:58:11;101333.97;;;12.01;81.28
77062;BME280;65989;51.686;5.138;2024-02-21T12:00:36;101325.78;;;12.07;80.67
77062;BME280;65989;51.686;5.138;2024-02-21T12:03:03;101319.75;;;12.17;81.00
77062;BME280;65989;51.686;5.138;2024-02-21T12:05:29;101320.34;;;12.24;80.43
77062;BME280;65989;51.686;5.138;2024-02-21T12:07:55;101301.50;;;12.26;79.43
77062;BME280;65989;51.686;5.138;2024-02-21T12:10:21;101303.63;;;12.24;78.93
77062;BME280;65989;51.686;5.138;2024-02-21T12:12:46;101299.09;;;12.24;79.73
77062;BME280;65989;51.686;5.138;2024-02-21T12:15:11;101293.78;;;12.24;79.14
77062;BME280;65989;51.686;5.138;2024-02-21T12:17:37;101294.06;;;12.23;79.07
77062;BME280;65989;51.686;5.138;2024-02-21T12:20:04;101288.22;;;12.26;78.83
77062;BME280;65989;51.686;5.138;2024-02-21T12:22:35;101278.41;;;12.27;78.04
77062;BME280;65989;51.686;5.138;2024-02-21T12:25:04;101262.97;;;12.23;78.44
77062;BME280;65989;51.686;5.138;2024-02-21T12:27:33;101257.91;;;12.22;78.46
77062;BME280;65989;51.686;5.138;2024-02-21T12:29:58;101251.50;;;12.18;78.75
77062;BME280;65989;51.686;5.138;2024-02-21T12:32:23;101241.31;;;12.09;78.14
77062;BME280;65989;51.686;5.138;2024-02-21T12:34:49;101241.78;;;12.01;78.68
77062;BME280;65989;51.686;5.138;2024-02-21T12:37:14;101239.13;;;12.01;78.90
77062;BME280;65989;51.686;5.138;2024-02-21T12:39:41;101209.84;;;11.96;78.67
77062;BME280;65989;51.686;5.138;2024-02-21T12:42:07;101205.56;;;11.95;78.76
77062;BME280;65989;51.686;5.138;2024-02-21T12:44:32;101185.94;;;11.96;78.45
77062;BME280;65989;51.686;5.138;2024-02-21T12:46:57;101167.91;;;11.98;78.90
77062;BME280;65989;51.686;5.138;2024-02-21T12:49:23;101154.06;;;11.91;78.25
77062;BME280;65989;51.686;5.138;2024-02-21T12:51:49;101163.03;;;11.85;78.10
77062;BME280;65989;51.686;5.138;2024-02-21T12:54:14;101159.31;;;11.86;78.59